ROCKY HARBOUR CS/NF, current weather conditions

sailwx.info

Last reported at 2014-Jun-04 18:15 UTC.
Time now 2014-Sep-21 04:03 UTC

Location: N 49°34' W 057°53'.
View on Google Maps.

See reports from other nearby stations

  
Tides and Currents Weather Stations Pressure Air Temp Water Temp Dewpoint Dewpoint Depression Visibility Wind Speed Wind Dir Waves Ship Positions
date/time (UTC)wind fromknots sea level pressurealtimeterstation pressurevisibilityair tempwater tempwave heightnotes
2014-Sep-21 02:00 230 14 gusting 25 10.0
2014-Sep-21 01:00 230 12 gusting 22 10.0
2014-Sep-21 00:00 230 16 gusting 27 11.0
2014-Sep-20 23:00 230 15 gusting 38 11.0
2014-Sep-20 22:00 230 10 gusting 19 11.0
2014-Sep-20 21:00 240 17 gusting 37 11.0
2014-Sep-20 20:00 230 15 gusting 26 11.0
2014-Sep-20 19:00 220 14 gusting 29 11.0
2014-Sep-20 18:00 240 15 gusting 27 12.0
2014-Sep-20 17:00 240 14 gusting 30 12.0
2014-Sep-20 16:00 230 17 gusting 31 12.0
2014-Sep-20 15:00 240 14 gusting 23 12.0
2014-Sep-20 14:00 230 17 gusting 26 12.0
2014-Sep-20 13:00 240 10 gusting 19 12.0
2014-Sep-20 12:00 230 8 11.0
2014-Sep-20 11:00 250 11 gusting 16 8.0
2014-Sep-20 10:00 260 10 gusting 18 8.0
2014-Sep-20 09:00 270 11 gusting 20 8.0
2014-Sep-20 08:00 270 10 gusting 16 7.0
2014-Sep-20 07:00 280 7 7.0
2014-Sep-20 06:00 320 4 6.0
2014-Sep-20 05:00 300 4 6.0
2014-Sep-20 04:00 300 5 gusting 15 7.0
2014-Sep-20 03:00 320 7 7.0
2014-Sep-20 02:00 290 10 gusting 20 8.0
2014-Sep-20 01:00 270 13 gusting 23 8.0
2014-Sep-20 00:00 280 12 gusting 25 8.0
2014-Sep-19 23:00 280 7 7.0
2014-Sep-19 22:00 270 10 gusting 17 7.0
2014-Sep-19 21:00 270 10 gusting 18 7.0
2014-Sep-19 20:00 280 8 8.0
2014-Sep-19 19:00 290 7 11.0
2014-Sep-19 18:00 280 6 12.0
2014-Sep-19 17:00 280 8 gusting 15 11.0
2014-Sep-19 16:00 290 6 gusting 15 9.0
2014-Sep-19 15:00 310 5 9.0
2014-Sep-19 14:00 310 6 8.0
2014-Sep-19 13:00 340 4 7.0
2014-Sep-19 12:00 330 4 6.0
2014-Sep-19 11:00 330 5 5.0
2014-Sep-19 10:00 300 3 5.0
2014-Sep-19 09:00 280 6 5.0
2014-Sep-19 08:00 270 7 5.0
2014-Sep-19 07:00 280 8 gusting 15 5.0
2014-Sep-19 06:00 270 5 6.0
2014-Sep-19 05:00 270 5 6.0
2014-Sep-19 04:00 270 5 7.0